Startpagina
METAR-TAF:

METAR-TAF

Vliegvelden :

Kuito, Angola

breedte: 12-24-15S, lengte: 16-56-55E, hoogte: 1712 m

METAR: ontbreekt

Tijdstip: 10:25 (09:25 UTC)

Verwachting

Dit bericht is 10 uur en het 25 minuten geleden gemaakt, om 23:00 UTC
Verwachting geldig van 25 om 00 UTC tot 25 om 12 UTC
Wind 6 kt uit het oosten
Zicht 10 km of meer
geen wolken onder 1500 m en geen cumulonimbus

TAF: FNKU 242300Z 2500/2512 10006KT CAVOK

Waarnemingen en weersverwachtingen van meer dan 4000 vliegvelden (METAR en TAF).

De beschikbare stations zijn de gele en rode punten op de kaart.

Ga met uw muis naar het station om de naam te zien.

Klik dan om waarnemingen en weersverwachtingen te zien.

kaart wijzigen: klik op de groene knoppen met een zwart kruis om in te zoomen, op de groene knop met een streepje om uit te zoomen of op de groene pijlen voor aangrenzende kaarten.


METAR-TAF: